Time;durP1;ratioP1;P1;durP2;ratioP2;P2;SDS_P1;SDS_P2;PMS_P1;PMS_P2;Temp;Humidity;BMP_temperature;BMP_pressure;BME280_temperature;BME280_humidity;BME280_pressure;Samples;Min_cycle;Max_cycle;Signal;HPM_P1;HPM_P2
2023/04/21 07:00:15;;;;;;;9.20;4.75;;;10.70;99.90;;;;;;4734330;24;20065;-84
2023/04/21 07:02:41;;;;;;;9.80;4.10;;;10.60;99.90;;;;;;4843036;29;20050;-86
2023/04/21 07:08:48;;;;;;;12.13;5.32;;;11.10;99.90;;;;;;4825772;29;20106;-86
2023/04/21 07:11:14;;;;;;;8.95;5.18;;;11.30;99.90;;;;;;4848569;29;20049;-85
2023/04/21 07:13:39;;;;;;;9.38;6.13;;;11.30;99.90;;;;;;4827255;29;20471;-83
2023/04/21 07:16:05;;;;;;;9.23;5.90;;;11.40;99.90;;;;;;4843197;29;20050;-86
2023/04/21 07:18:40;;;;;;;12.43;5.78;;;11.40;99.90;;;;;;4826973;29;20437;-87
2023/04/21 07:21:06;;;;;;;9.57;5.82;;;11.50;99.90;;;;;;4827764;29;20132;-85
2023/04/21 07:23:32;;;;;;;10.93;5.18;;;11.70;99.90;;;;;;4827293;29;20187;-87
2023/04/21 07:25:58;;;;;;;10.43;4.82;;;11.70;99.90;;;;;;4811958;29;20462;-85
2023/04/21 07:28:24;;;;;;;14.10;5.78;;;11.30;99.90;;;;;;4826116;29;20062;-85
2023/04/21 07:30:50;;;;;;;9.70;5.78;;;11.80;99.90;;;;;;4842736;29;20182;-82
2023/04/21 07:33:15;;;;;;;6.65;4.53;;;11.90;99.90;;;;;;4844007;29;20057;-83
2023/04/21 07:35:41;;;;;;;8.13;4.25;;;12.00;99.90;;;;;;4843908;29;20046;-83
2023/04/21 07:38:08;;;;;;;9.43;6.20;;;12.00;99.90;;;;;;4843641;29;20144;-83
2023/04/21 07:40:37;;;;;;;10.63;5.28;;;12.20;99.90;;;;;;4843555;29;20050;-83
2023/04/21 07:43:02;;;;;;;10.93;5.13;;;12.20;99.90;;;;;;4843655;29;20049;-83
2023/04/21 07:45:28;;;;;;;9.95;4.82;;;12.20;99.90;;;;;;4826009;29;20482;-84
2023/04/21 07:47:54;;;;;;;7.65;4.82;;;12.40;99.90;;;;;;4843191;29;20514;-85
2023/04/21 07:50:19;;;;;;;7.22;4.30;;;12.50;99.90;;;;;;4843255;29;20049;-83
2023/04/21 07:52:46;;;;;;;7.07;4.07;;;12.70;99.90;;;;;;4843593;29;20061;-80
2023/04/21 07:55:13;;;;;;;9.15;4.93;;;12.80;99.90;;;;;;4842964;29;20064;-82
2023/04/21 07:57:39;;;;;;;9.93;5.47;;;12.90;99.90;;;;;;4827078;29;20124;-81
2023/04/21 08:00:06;;;;;;;10.20;5.07;;;12.90;99.90;;;;;;4842769;29;20094;-81
2023/04/21 08:02:31;;;;;;;12.75;6.22;;;12.90;99.90;;;;;;4842795;29;20418;-82
2023/04/21 08:04:57;;;;;;;8.82;4.32;;;13.10;99.90;;;;;;4842649;29;20045;-83
2023/04/21 08:07:23;;;;;;;7.82;3.80;;;13.20;99.90;;;;;;4826677;29;20049;-82
2023/04/21 08:09:49;;;;;;;7.05;3.78;;;13.30;99.90;;;;;;4843645;29;20050;-83
2023/04/21 08:12:14;;;;;;;8.13;3.65;;;13.40;99.90;;;;;;4843854;29;20505;-83
2023/04/21 08:14:40;;;;;;;8.88;4.80;;;13.50;99.90;;;;;;4843305;29;20046;-83
2023/04/21 08:17:06;;;;;;;12.18;5.22;;;13.60;99.90;;;;;;4826607;29;20042;-81
2023/04/21 08:19:32;;;;;;;10.85;4.65;;;13.70;99.90;;;;;;4843648;29;20060;-80
2023/04/21 08:21:57;;;;;;;9.23;4.50;;;13.70;99.90;;;;;;4825876;29;20376;-79
2023/04/21 08:24:23;;;;;;;5.95;3.53;;;13.80;99.90;;;;;;4826489;29;20050;-82
2023/04/21 08:26:49;;;;;;;9.77;4.43;;;14.00;99.90;;;;;;4844550;29;20057;-85
2023/04/21 08:29:15;;;;;;;10.43;4.97;;;14.10;99.90;;;;;;4843965;29;20057;-84
2023/04/21 08:31:41;;;;;;;8.45;3.80;;;14.30;99.90;;;;;;4843679;29;20077;-85
2023/04/21 08:34:07;;;;;;;7.40;3.85;;;14.50;99.90;;;;;;4843906;29;20469;-83
2023/04/21 08:36:33;;;;;;;10.13;4.80;;;14.50;99.90;;;;;;4827395;29;20049;-83
2023/04/21 08:38:59;;;;;;;7.47;4.65;;;14.60;99.90;;;;;;4843365;29;20483;-83
2023/04/21 08:41:25;;;;;;;9.50;4.95;;;14.60;99.90;;;;;;4827386;29;20042;-83
2023/04/21 08:43:51;;;;;;;9.80;4.70;;;14.70;99.90;;;;;;4842219;29;20033;-80
2023/04/21 08:46:18;;;;;;;10.70;4.15;;;14.70;99.90;;;;;;4842870;29;20050;-81
2023/04/21 08:48:45;;;;;;;9.05;4.60;;;14.80;99.90;;;;;;4844372;29;20054;-81
2023/04/21 08:51:19;;;;;;;11.43;4.50;;;14.80;99.90;;;;;;4828126;29;20081;-81
2023/04/21 08:53:45;;;;;;;8.27;3.97;;;15.00;99.90;;;;;;4842625;29;20042;-80
2023/04/21 08:56:11;;;;;;;13.90;5.70;;;15.10;99.90;;;;;;4842988;29;20379;-81
2023/04/21 08:58:37;;;;;;;6.57;3.88;;;15.20;99.90;;;;;;4842107;29;20061;-80
2023/04/21 09:01:03;;;;;;;9.70;4.65;;;15.20;99.90;;;;;;4842083;29;20127;-79
2023/04/21 09:03:30;;;;;;;19.90;7.03;;;15.30;99.90;;;;;;4842632;29;20459;-82
2023/04/21 09:06:06;;;;;;;7.03;3.35;;;15.40;99.90;;;;;;4825906;29;20050;-81
2023/04/21 09:08:33;;;;;;;21.48;5.93;;;15.40;99.90;;;;;;4825663;29;20057;-83
2023/04/21 09:11:00;;;;;;;9.95;4.82;;;15.50;99.90;;;;;;4842417;29;20057;-82
2023/04/21 09:13:36;;;;;;;6.93;3.58;;;15.60;99.90;;;;;;4842099;29;20448;-82
2023/04/21 09:16:04;;;;;;;8.30;3.42;;;15.60;99.90;;;;;;4810778;29;20398;-82
2023/04/21 09:18:35;;;;;;;8.68;4.28;;;15.70;99.90;;;;;;4842236;29;20088;-82
2023/04/21 09:21:10;;;;;;;9.88;4.65;;;15.90;99.90;;;;;;4842171;29;20087;-81
2023/04/21 09:23:54;;;;;;;10.68;4.32;;;15.90;99.90;;;;;;4841918;29;20090;-86
2023/04/21 09:26:23;;;;;;;9.80;4.10;;;16.00;99.90;;;;;;4841243;29;20050;-84
2023/04/21 09:28:51;;;;;;;7.18;3.55;;;16.20;99.90;;;;;;4825528;29;20057;-84
2023/04/21 09:31:24;;;;;;;9.85;4.00;;;16.20;99.90;;;;;;4826045;29;20080;-84
2023/04/21 09:33:57;;;;;;;8.85;3.58;;;16.30;99.90;;;;;;4842064;29;20430;-84
2023/04/21 09:36:25;;;;;;;10.65;3.50;;;16.30;99.90;;;;;;4810321;29;20083;-83
2023/04/21 09:38:53;;;;;;;6.47;3.53;;;16.40;99.90;;;;;;4825666;29;20062;-83
2023/04/21 09:41:20;;;;;;;8.57;4.45;;;16.60;99.90;;;;;;4841817;29;20061;-84
2023/04/21 09:43:47;;;;;;;6.35;3.35;;;16.70;99.90;;;;;;4841985;29;20046;-84
2023/04/21 09:46:15;;;;;;;8.55;3.83;;;16.80;99.90;;;;;;4825389;29;20114;-82
2023/04/21 09:48:44;;;;;;;6.00;3.28;;;16.90;99.90;;;;;;4825619;29;20054;-83
2023/04/21 09:51:14;;;;;;;7.03;3.35;;;16.90;99.90;;;;;;4809311;29;20107;-81
2023/04/21 09:53:40;;;;;;;5.63;3.30;;;17.10;99.90;;;;;;4824877;29;20085;-82
2023/04/21 09:56:14;;;;;;;7.95;3.20;;;17.10;99.90;;;;;;4841882;29;20041;-85
2023/04/21 09:58:49;;;;;;;7.78;4.07;;;17.30;99.90;;;;;;4825550;29;20042;-83
2023/04/21 10:01:15;;;;;;;10.02;3.42;;;17.40;99.90;;;;;;4822073;29;20070;-82
2023/04/21 10:03:43;;;;;;;7.68;3.75;;;17.40;99.90;;;;;;4823449;29;20059;-84
2023/04/21 10:06:10;;;;;;;6.72;3.28;;;17.50;99.90;;;;;;4822005;29;20050;-84
2023/04/21 10:08:36;;;;;;;6.22;2.90;;;17.60;99.90;;;;;;4806601;29;20058;-82
2023/04/21 10:11:03;;;;;;;5.93;3.80;;;17.80;99.90;;;;;;4821955;29;20512;-82
2023/04/21 10:13:29;;;;;;;5.90;3.20;;;17.80;99.90;;;;;;4822777;29;20527;-81
2023/04/21 10:16:09;;;;;;;6.95;3.42;;;17.90;99.90;;;;;;4821430;29;20050;-84
2023/04/21 10:18:45;;;;;;;7.95;3.30;;;17.90;99.90;;;;;;4815444;29;20066;-83
2023/04/21 10:21:20;;;;;;;8.65;3.50;;;18.00;99.90;;;;;;4821313;29;20046;-83
2023/04/21 10:23:53;;;;;;;;;;;18.00;99.90;;;;;;4826348;29;20514;-82
2023/04/21 10:26:34;;;;;;;8.00;3.28;;;18.10;99.90;;;;;;4823060;29;19990;-80
2023/04/21 10:29:05;;;;;;;6.68;2.90;;;18.20;99.90;;;;;;4823011;29;20488;-82
2023/04/21 10:31:34;;;;;;;6.63;3.85;;;18.40;99.90;;;;;;4807033;29;20050;-81
2023/04/21 10:34:10;;;;;;;8.02;3.20;;;18.50;99.90;;;;;;4822698;29;20125;-83
2023/04/21 10:36:48;;;;;;;6.68;3.25;;;18.70;99.90;;;;;;4806531;29;20051;-81
2023/04/21 10:39:51;;;;;;;6.93;3.45;;;18.80;99.90;;;;;;4809480;29;20066;-81
2023/04/21 10:42:26;;;;;;;6.75;2.55;;;19.00;99.90;;;;;;4823338;29;20051;-82
2023/04/21 10:44:57;;;;;;;6.05;3.00;;;19.10;99.90;;;;;;4819143;29;20046;-80
2023/04/21 10:47:47;;;;;;;8.27;2.78;;;19.20;99.90;;;;;;4822314;29;20415;-81
2023/04/21 10:50:19;;;;;;;6.07;2.97;;;19.30;99.90;;;;;;4821692;29;20082;-79
2023/04/21 10:53:11;;;;;;;4.53;2.80;;;19.30;99.90;;;;;;4825679;29;20089;-80
2023/04/21 10:55:38;;;;;;;6.85;3.03;;;19.40;99.90;;;;;;4832819;29;20046;-80
2023/04/21 10:58:07;;;;;;;7.78;3.17;;;19.30;99.90;;;;;;4825466;29;20042;-81
2023/04/21 11:00:36;;;;;;;7.70;3.20;;;19.50;99.90;;;;;;4825322;29;20070;-79
2023/04/21 11:03:06;;;;;;;5.70;2.50;;;19.40;99.90;;;;;;4809209;29;20446;-83
2023/04/21 11:05:40;;;;;;;8.13;2.90;;;19.60;99.90;;;;;;4825694;29;20046;-82
2023/04/21 11:08:11;;;;;;;5.90;2.60;;;19.50;98.90;;;;;;4823915;29;20091;-83
2023/04/21 11:10:55;;;;;;;4.03;2.22;;;19.60;99.90;;;;;;4829634;29;20050;-83
2023/04/21 11:13:32;;;;;;;7.72;2.65;;;19.70;99.90;;;;;;4802990;29;20518;-83
2023/04/21 11:16:05;;;;;;;5.90;3.35;;;19.80;99.80;;;;;;4824196;29;20141;-83
2023/04/21 11:18:40;;;;;;;7.60;3.00;;;19.80;99.90;;;;;;4829809;29;20141;-82
2023/04/21 11:21:16;;;;;;;7.13;3.08;;;19.90;99.20;;;;;;4825316;29;20038;-82
2023/04/21 11:23:48;;;;;;;5.13;3.05;;;20.00;99.80;;;;;;4823962;29;20569;-82
2023/04/21 11:26:14;;;;;;;5.57;2.60;;;20.00;98.30;;;;;;4824230;29;20080;-82
2023/04/21 11:28:40;;;;;;;6.95;2.90;;;20.00;98.80;;;;;;4823890;29;20049;-82
2023/04/21 11:31:07;;;;;;;7.32;2.97;;;20.00;99.30;;;;;;4824081;29;20540;-83
2023/04/21 11:33:39;;;;;;;10.05;3.10;;;20.00;98.00;;;;;;4828802;29;20052;-82
2023/04/21 11:36:07;;;;;;;7.75;2.72;;;20.10;99.00;;;;;;4825150;29;20436;-82
2023/04/21 11:38:42;;;;;;;4.40;2.17;;;20.10;99.20;;;;;;4824672;29;20052;-84
2023/04/21 11:41:09;;;;;;;5.10;2.40;;;20.20;98.60;;;;;;4823865;29;20420;-81
2023/04/21 11:43:35;;;;;;;7.35;2.78;;;20.20;97.60;;;;;;4823994;29;20129;-82
2023/04/21 11:46:26;;;;;;;6.78;2.67;;;20.30;97.10;;;;;;4808810;29;20046;-81
2023/04/21 11:48:59;;;;;;;5.78;2.28;;;20.30;97.00;;;;;;4743614;30;20066;-82
2023/04/21 11:51:26;;;;;;;7.07;3.20;;;20.40;97.10;;;;;;4755447;30;20060;-82
2023/04/21 11:53:52;;;;;;;6.32;2.63;;;20.40;96.50;;;;;;4736049;30;20067;-83
2023/04/21 11:56:21;;;;;;;7.25;2.72;;;20.30;96.20;;;;;;4736049;30;20058;-84
2023/04/21 11:58:49;;;;;;;5.97;2.65;;;20.40;95.70;;;;;;4735909;30;20135;-83
2023/04/21 12:01:15;;;;;;;5.28;2.55;;;20.50;95.70;;;;;;4750576;30;20056;-83
2023/04/21 12:03:41;;;;;;;6.65;2.60;;;20.50;96.00;;;;;;4749657;30;20498;-82
2023/04/21 12:06:07;;;;;;;3.88;2.17;;;20.40;95.40;;;;;;4732277;30;20059;-83
2023/04/21 12:08:33;;;;;;;3.75;2.58;;;20.50;96.00;;;;;;4736686;30;20052;-83
2023/04/21 12:11:01;;;;;;;7.88;2.88;;;20.50;96.00;;;;;;4750528;30;20118;-83
2023/04/21 12:13:27;;;;;;;6.38;2.95;;;20.60;95.80;;;;;;4749907;30;20068;-83
2023/04/21 12:15:53;;;;;;;5.28;2.30;;;20.60;95.20;;;;;;4767029;30;20413;-84
2023/04/21 12:19:40;;;;;;;5.88;2.35;;;20.70;94.60;;;;;;5018342;28;20469;-81
2023/04/21 12:22:10;;;;;;;7.35;2.97;;;20.80;94.40;;;;;;4986627;28;20402;-82
2023/04/21 12:24:51;;;;;;;6.65;2.08;;;20.70;93.10;;;;;;4986954;28;20050;-91
2023/04/21 12:27:18;;;;;;;7.65;2.70;;;20.70;93.80;;;;;;4985616;28;20130;-84
2023/04/21 12:29:43;;;;;;;6.78;2.42;;;20.80;94.10;;;;;;4985097;28;20491;-84
2023/04/21 12:32:17;;;;;;;12.48;3.97;;;20.80;94.30;;;;;;4985268;28;20050;-83
2023/04/21 12:34:43;;;;;;;47.35;12.07;;;21.00;94.60;;;;;;4985816;28;20077;-85
2023/04/21 12:37:11;;;;;;;11.77;2.55;;;21.10;94.80;;;;;;4986067;28;20074;-84
2023/04/21 12:39:37;;;;;;;5.20;1.98;;;21.30;94.10;;;;;;4986515;28;20515;-84
2023/04/21 12:42:03;;;;;;;7.72;2.58;;;21.30;92.60;;;;;;4985860;28;20155;-85
2023/04/21 12:44:29;;;;;;;4.55;2.45;;;21.20;93.40;;;;;;4987131;28;20038;-85
2023/04/21 12:46:56;;;;;;;6.93;2.40;;;21.30;93.90;;;;;;4986975;28;20057;-85
2023/04/21 12:49:22;;;;;;;7.57;2.65;;;21.30;92.80;;;;;;4986071;28;20073;-84
2023/04/21 12:51:48;;;;;;;4.93;2.58;;;21.30;93.20;;;;;;4969770;28;20439;-84
2023/04/21 12:54:14;;;;;;;3.50;1.90;;;21.10;92.80;;;;;;4985919;28;20077;-84
2023/04/21 12:56:41;;;;;;;3.80;2.35;;;21.30;93.80;;;;;;4985654;28;20077;-84
2023/04/21 12:59:09;;;;;;;4.53;2.28;;;21.40;92.10;;;;;;4985786;28;20058;-84
2023/04/21 13:01:36;;;;;;;3.38;1.75;;;21.40;91.50;;;;;;4985491;28;20051;-83
2023/04/21 13:04:02;;;;;;;6.07;2.33;;;21.50;92.80;;;;;;4986788;28;20410;-84
2023/04/21 13:06:28;;;;;;;7.07;3.00;;;21.80;92.60;;;;;;4985435;28;20081;-84
2023/04/21 13:08:54;;;;;;;5.95;2.28;;;21.80;91.10;;;;;;4969361;28;20050;-84
2023/04/21 13:11:20;;;;;;;5.45;1.67;;;21.80;92.20;;;;;;4986653;28;20406;-83
2023/04/21 13:13:46;;;;;;;5.25;2.17;;;21.80;93.20;;;;;;4985306;28;20061;-84
2023/04/21 13:16:12;;;;;;;4.85;2.03;;;21.60;91.90;;;;;;4985434;28;20042;-85
2023/04/21 13:18:38;;;;;;;6.43;1.90;;;21.70;92.00;;;;;;4984983;28;20513;-84
2023/04/21 13:21:05;;;;;;;4.00;1.77;;;21.70;91.60;;;;;;4985454;28;20054;-84
2023/04/21 13:23:31;;;;;;;3.95;1.77;;;21.60;90.00;;;;;;4986483;28;20050;-84
2023/04/21 13:25:57;;;;;;;2.92;1.80;;;21.50;91.80;;;;;;4985195;28;20490;-84
2023/04/21 13:28:24;;;;;;;4.28;1.80;;;21.30;91.20;;;;;;4983097;28;20097;-84
2023/04/21 13:30:53;;;;;;;3.20;1.88;;;21.30;90.70;;;;;;4972096;28;20086;-85
2023/04/21 13:33:20;;;;;;;3.47;1.77;;;21.40;91.30;;;;;;4973432;28;20041;-84
2023/04/21 13:35:46;;;;;;;4.68;2.05;;;21.50;91.30;;;;;;4972262;28;20054;-84
2023/04/21 13:38:11;;;;;;;2.38;1.40;;;21.80;90.80;;;;;;4972133;28;20411;-84
2023/04/21 13:40:37;;;;;;;6.82;1.90;;;21.80;90.70;;;;;;4972325;28;20437;-85
2023/04/21 13:43:03;;;;;;;10.75;5.18;;;21.50;90.60;;;;;;4972509;28;20038;-84
2023/04/21 13:45:29;;;;;;;4.82;1.70;;;21.10;89.40;;;;;;4971182;28;20047;-79
2023/04/21 13:47:57;;;;;;;5.10;1.58;;;21.00;88.90;;;;;;4968573;28;20132;-86
2023/04/21 13:50:23;;;;;;;3.25;1.90;;;21.00;90.40;;;;;;4968015;28;20085;-86
2023/04/21 13:52:49;;;;;;;3.17;1.52;;;20.90;88.40;;;;;;4970022;28;20130;-88
2023/04/21 13:55:15;;;;;;;3.05;1.80;;;21.00;91.30;;;;;;4971485;28;20130;-84
2023/04/21 13:57:41;;;;;;;145.65;81.03;;;21.20;90.30;;;;;;4971181;28;20088;-85
2023/04/21 14:00:10;;;;;;;4.20;2.30;;;21.30;91.00;;;;;;4971416;28;20107;-85
2023/04/21 14:02:37;;;;;;;62.78;36.45;;;21.20;90.80;;;;;;4972092;28;20031;-84
2023/04/21 14:05:04;;;;;;;3.42;1.63;;;21.10;91.20;;;;;;4971921;28;20448;-86
2023/04/21 14:07:30;;;;;;;4.30;2.30;;;21.00;91.20;;;;;;4972218;28;20038;-83
2023/04/21 14:09:56;;;;;;;2.80;1.52;;;21.00;90.90;;;;;;4970881;28;20081;-83
2023/04/21 14:12:24;;;;;;;5.88;1.90;;;21.10;90.50;;;;;;4972546;28;20042;-83
2023/04/21 14:14:50;;;;;;;4.03;1.90;;;21.20;91.90;;;;;;4971279;28;20043;-84
2023/04/21 14:17:16;;;;;;;2.28;1.70;;;21.40;90.50;;;;;;4972099;28;20051;-82
2023/04/21 14:19:42;;;;;;;2.28;1.60;;;21.50;90.90;;;;;;4971570;28;20050;-82
2023/04/21 14:22:08;;;;;;;3.35;1.77;;;21.60;91.10;;;;;;4971195;28;20051;-82
2023/04/21 14:24:33;;;;;;;4.75;2.25;;;21.70;90.70;;;;;;4972013;28;20043;-82
2023/04/21 14:26:59;;;;;;;5.45;2.03;;;21.80;90.40;;;;;;4972341;28;20375;-83
2023/04/21 14:29:25;;;;;;;3.90;2.15;;;21.80;88.00;;;;;;4971934;28;20062;-85
2023/04/21 14:31:56;;;;;;;8.77;2.67;;;21.90;88.00;;;;;;4971944;28;20035;-84
2023/04/21 14:34:23;;;;;;;3.65;1.90;;;22.00;88.90;;;;;;4971282;28;20133;-83
2023/04/21 14:36:48;;;;;;;3.95;2.00;;;22.00;89.70;;;;;;4970454;28;20483;-83
2023/04/21 14:39:15;;;;;;;4.55;1.95;;;21.70;87.30;;;;;;4971172;28;20057;-84
2023/04/21 14:41:40;;;;;;;4.78;1.50;;;21.60;88.40;;;;;;4969430;28;20039;-83
2023/04/21 14:44:06;;;;;;;4.45;1.63;;;21.30;82.10;;;;;;4971231;28;20100;-84
2023/04/21 14:46:32;;;;;;;265.25;165.68;;;21.40;82.60;;;;;;4969797;28;20054;-84
2023/04/21 14:48:57;;;;;;;4.50;2.33;;;21.40;87.10;;;;;;4971022;28;20051;-83
2023/04/21 14:51:23;;;;;;;6.03;2.35;;;21.40;87.00;;;;;;4971450;28;20046;-84
2023/04/21 14:53:50;;;;;;;3.90;2.20;;;21.40;86.60;;;;;;4969611;28;20499;-83
2023/04/21 14:56:15;;;;;;;3.22;2.10;;;21.50;89.10;;;;;;4970497;28;20047;-84
2023/04/21 14:58:41;;;;;;;24.10;4.68;;;21.80;88.20;;;;;;4970991;28;20042;-83
2023/04/21 15:01:07;;;;;;;23.02;6.57;;;21.90;88.60;;;;;;4971215;28;20494;-83
2023/04/21 15:03:33;;;;;;;3.28;1.95;;;22.00;88.30;;;;;;4969749;28;20046;-84
2023/04/21 15:05:58;;;;;;;9.02;2.03;;;22.00;87.70;;;;;;4965559;28;20042;-85
2023/04/21 15:08:24;;;;;;;3.88;2.30;;;22.00;88.70;;;;;;4971141;28;20039;-84
2023/04/21 15:10:50;;;;;;;4.35;2.13;;;22.00;89.00;;;;;;4971347;28;20050;-83
2023/04/21 15:13:16;;;;;;;5.93;2.35;;;21.90;90.00;;;;;;4971596;28;20035;-82
2023/04/21 15:15:42;;;;;;;4.07;1.65;;;21.80;89.30;;;;;;4970377;28;20039;-80
2023/04/21 15:18:07;;;;;;;2.30;1.38;;;21.60;82.10;;;;;;4971518;28;20158;-81
2023/04/21 15:20:33;;;;;;;3.38;1.50;;;21.50;83.40;;;;;;4972177;28;20094;-80
2023/04/21 15:22:59;;;;;;;89.53;37.53;;;21.40;83.70;;;;;;4970500;28;20518;-83
2023/04/21 15:25:25;;;;;;;2.83;1.58;;;21.30;84.90;;;;;;4971189;28;20042;-80
2023/04/21 15:27:50;;;;;;;4.80;1.40;;;21.00;83.50;;;;;;4969375;28;20398;-80
2023/04/21 15:30:16;;;;;;;3.75;1.73;;;20.80;83.70;;;;;;4970726;28;20078;-80
2023/04/21 15:32:42;;;;;;;2.78;1.70;;;20.70;84.40;;;;;;4969482;28;20043;-80
2023/04/21 15:35:08;;;;;;;2.25;1.55;;;20.60;82.90;;;;;;4969198;28;20042;-80
2023/04/21 15:37:34;;;;;;;3.13;1.55;;;20.60;82.80;;;;;;4970493;28;20045;-82
2023/04/21 15:39:59;;;;;;;2.33;1.40;;;20.60;83.00;;;;;;4970820;28;20050;-83
2023/04/21 15:42:25;;;;;;;6.32;1.90;;;20.70;84.10;;;;;;4969827;28;20035;-83
2023/04/21 15:44:52;;;;;;;2.95;1.45;;;20.60;82.90;;;;;;4971110;28;20042;-83
2023/04/21 15:47:18;;;;;;;4.25;1.45;;;20.60;85.20;;;;;;4969851;28;20479;-82
2023/04/21 15:49:44;;;;;;;2.97;1.45;;;20.60;85.50;;;;;;4970881;28;20042;-83
2023/04/21 15:52:10;;;;;;;2.55;1.58;;;20.80;87.60;;;;;;4970415;28;20039;-82
2023/04/21 15:54:36;;;;;;;3.05;1.60;;;20.60;80.80;;;;;;4970270;28;20042;-82
2023/04/21 15:57:01;;;;;;;3.38;1.50;;;20.50;83.50;;;;;;4969512;28;20360;-83
2023/04/21 15:59:27;;;;;;;3.90;1.60;;;20.50;85.60;;;;;;4969847;28;20049;-83
2023/04/21 16:01:55;;;;;;;3.00;2.03;;;20.40;84.50;;;;;;4969816;28;20050;-83
2023/04/21 16:04:21;;;;;;;3.97;1.67;;;20.30;83.30;;;;;;4970620;28;20038;-83
2023/04/21 16:06:47;;;;;;;2.97;1.50;;;20.30;84.60;;;;;;4970218;28;20057;-83
2023/04/21 16:09:13;;;;;;;2.88;1.50;;;20.30;84.90;;;;;;4968574;28;20043;-84
2023/04/21 16:11:39;;;;;;;4.22;2.03;;;20.20;83.50;;;;;;4952951;28;20065;-83
2023/04/21 16:14:04;;;;;;;4.80;2.20;;;20.20;83.30;;;;;;4966897;28;20195;-85
2023/04/21 16:16:30;;;;;;;4.55;1.77;;;20.10;83.00;;;;;;4963684;28;20042;-87
2023/04/21 16:18:56;;;;;;;3.85;1.95;;;19.90;84.50;;;;;;4968848;28;20508;-84
2023/04/21 16:21:22;;;;;;;2.33;1.40;;;19.80;84.50;;;;;;4969975;28;20035;-85
2023/04/21 16:23:48;;;;;;;5.93;1.80;;;19.80;84.90;;;;;;4968819;28;20433;-84
2023/04/21 16:26:14;;;;;;;5.75;1.85;;;19.70;85.30;;;;;;4968558;28;20471;-85
2023/04/21 16:28:40;;;;;;;4.45;1.98;;;19.60;84.00;;;;;;4968781;28;20126;-85
2023/04/21 16:31:06;;;;;;;3.25;1.83;;;19.60;84.20;;;;;;4968599;28;20554;-84
2023/04/21 16:33:31;;;;;;;3.15;2.08;;;19.50;84.50;;;;;;4970299;28;20467;-85
2023/04/21 16:35:57;;;;;;;2.78;1.75;;;19.50;84.70;;;;;;4970137;28;20042;-84
2023/04/21 16:38:23;;;;;;;3.10;2.05;;;19.50;85.60;;;;;;4969841;28;20039;-85
2023/04/21 16:40:49;;;;;;;5.05;2.10;;;19.40;87.10;;;;;;4969213;28;20130;-84
2023/04/21 16:43:15;;;;;;;2.40;1.65;;;19.30;87.20;;;;;;4969474;28;20441;-84
2023/04/21 16:45:40;;;;;;;3.47;2.08;;;19.30;88.40;;;;;;4969398;28;20165;-87
2023/04/21 16:48:07;;;;;;;5.20;2.00;;;19.20;88.90;;;;;;4968923;28;20085;-82
2023/04/21 16:50:33;;;;;;;3.30;1.80;;;19.10;87.40;;;;;;4969465;28;20042;-83
2023/04/21 16:52:59;;;;;;;3.05;1.65;;;19.10;88.40;;;;;;4967421;28;20126;-85
2023/04/21 16:55:25;;;;;;;4.07;2.03;;;19.00;88.40;;;;;;4968913;28;20453;-83
2023/04/21 16:57:50;;;;;;;4.00;2.13;;;19.00;89.80;;;;;;4968610;28;20051;-82
2023/04/21 17:00:17;;;;;;;4.35;2.10;;;18.90;88.40;;;;;;4968940;28;20047;-84
2023/04/21 17:02:42;;;;;;;6.13;2.10;;;18.80;89.00;;;;;;4970040;28;20047;-84
2023/04/21 17:05:10;;;;;;;4.35;1.92;;;18.80;89.40;;;;;;4970924;28;20047;-83
2023/04/21 17:07:38;;;;;;;6.63;2.40;;;18.70;89.80;;;;;;4973090;28;20441;-83
2023/04/21 17:10:05;;;;;;;3.13;2.00;;;18.70;89.10;;;;;;4971561;28;20090;-82
2023/04/21 17:12:30;;;;;;;3.72;1.90;;;18.60;90.30;;;;;;4971612;28;20129;-82
2023/04/21 17:14:56;;;;;;;3.47;2.28;;;18.50;90.00;;;;;;4972760;28;20541;-82
2023/04/21 17:17:22;;;;;;;3.25;2.03;;;18.50;90.80;;;;;;4971720;28;20059;-83
2023/04/21 17:19:48;;;;;;;5.47;2.28;;;18.40;91.00;;;;;;4972943;28;20035;-81
2023/04/21 17:22:14;;;;;;;7.43;2.60;;;18.30;90.90;;;;;;4973266;28;20508;-82
2023/04/21 17:24:40;;;;;;;4.20;2.40;;;18.30;90.80;;;;;;4973073;28;20121;-86
2023/04/21 17:27:06;;;;;;;4.65;2.28;;;18.30;91.00;;;;;;4972898;28;20241;-82
2023/04/21 17:29:32;;;;;;;2.55;1.80;;;18.20;91.30;;;;;;4972416;28;20051;-82
2023/04/21 17:31:58;;;;;;;3.40;1.80;;;18.10;91.30;;;;;;4973242;28;20050;-82
2023/04/21 17:34:23;;;;;;;3.00;1.95;;;18.10;91.70;;;;;;4954965;28;20095;-83
2023/04/21 17:36:49;;;;;;;6.10;2.00;;;18.00;91.80;;;;;;4972895;28;20054;-82
2023/04/21 17:39:15;;;;;;;4.72;2.35;;;17.90;91.70;;;;;;4972832;28;20043;-83
2023/04/21 17:41:41;;;;;;;2.42;1.75;;;17.80;91.70;;;;;;4971533;28;20039;-87
2023/04/21 17:44:07;;;;;;;4.07;2.97;;;17.80;92.20;;;;;;4971714;28;20086;-86
2023/04/21 17:46:32;;;;;;;4.40;2.40;;;17.70;92.30;;;;;;4971009;28;20043;-82
2023/04/21 17:48:58;;;;;;;3.67;2.22;;;17.60;92.60;;;;;;4971103;28;20078;-82
2023/04/21 17:51:24;;;;;;;3.53;2.20;;;17.50;92.80;;;;;;4971165;28;20047;-83
2023/04/21 17:53:50;;;;;;;3.65;2.20;;;17.50;92.90;;;;;;4972666;28;20051;-84
2023/04/21 17:56:17;;;;;;;4.32;2.20;;;17.40;92.90;;;;;;4955198;28;20465;-84
2023/04/21 17:58:43;;;;;;;3.03;2.20;;;17.30;93.20;;;;;;4972042;28;20047;-83
2023/04/21 18:01:09;;;;;;;4.70;2.38;;;17.30;93.30;;;;;;4971629;28;20043;-83
2023/04/21 18:03:35;;;;;;;4.60;2.40;;;17.20;93.50;;;;;;4971777;28;20126;-83
2023/04/21 18:06:01;;;;;;;3.35;2.35;;;17.10;93.60;;;;;;4971556;28;20043;-83
2023/04/21 18:08:27;;;;;;;3.58;2.22;;;17.10;94.10;;;;;;4972434;28;20394;-83
2023/04/21 18:10:56;;;;;;;3.72;2.13;;;17.00;94.40;;;;;;4972037;28;20039;-84
2023/04/21 18:13:21;;;;;;;5.45;2.33;;;16.90;94.90;;;;;;4972226;28;20043;-83
2023/04/21 18:15:47;;;;;;;3.33;2.35;;;16.70;95.40;;;;;;4971660;28;20047;-82
2023/04/21 18:18:13;;;;;;;3.60;2.38;;;16.60;96.00;;;;;;4972049;28;20059;-85
2023/04/21 18:20:39;;;;;;;3.10;2.30;;;16.50;96.60;;;;;;4970756;28;20043;-83
2023/04/21 18:23:05;;;;;;;3.30;2.25;;;16.30;96.90;;;;;;4970900;28;20117;-84
2023/04/21 18:25:30;;;;;;;4.70;2.50;;;16.20;97.50;;;;;;4971820;28;20050;-82
2023/04/21 18:27:56;;;;;;;5.65;2.38;;;16.10;98.10;;;;;;4971808;28;20494;-83
2023/04/21 18:30:22;;;;;;;3.00;2.30;;;15.90;98.70;;;;;;4972028;28;20031;-84
2023/04/21 18:32:48;;;;;;;4.75;2.33;;;15.70;99.30;;;;;;4971483;28;20129;-82
2023/04/21 18:35:14;;;;;;;3.85;1.98;;;15.70;99.70;;;;;;4971170;28;20150;-83
2023/04/21 18:37:40;;;;;;;5.38;2.17;;;15.50;99.90;;;;;;4971446;28;20042;-82
2023/04/21 18:40:06;;;;;;;4.30;2.40;;;15.50;99.90;;;;;;4971589;28;20559;-84
2023/04/21 18:42:32;;;;;;;3.45;1.90;;;15.40;99.90;;;;;;4971808;28;20068;-83
2023/04/21 18:44:58;;;;;;;4.20;2.53;;;15.30;99.90;;;;;;4970148;28;20051;-83
2023/04/21 18:47:24;;;;;;;3.53;1.70;;;15.30;99.90;;;;;;4970494;28;20406;-84
2023/04/21 18:49:50;;;;;;;4.03;1.77;;;15.20;99.90;;;;;;4971742;28;20897;-82
2023/04/21 18:52:16;;;;;;;2.97;1.83;;;15.10;99.90;;;;;;4954070;28;20050;-83
2023/04/21 18:54:42;;;;;;;79.55;75.20;;;15.10;99.90;;;;;;4971514;28;20471;-83
2023/04/21 18:57:07;;;;;;;39.58;37.25;;;15.00;99.90;;;;;;4970378;28;20122;-83
2023/04/21 18:59:36;;;;;;;2.80;1.63;;;14.90;99.90;;;;;;4971574;28;20039;-83
2023/04/21 19:02:04;;;;;;;2.45;1.63;;;14.80;99.90;;;;;;4970400;28;20055;-83
2023/04/21 19:04:33;;;;;;;4.15;2.08;;;14.70;99.90;;;;;;4970165;28;20085;-84
2023/04/21 19:07:00;;;;;;;3.28;2.20;;;14.70;99.90;;;;;;4971272;28;20039;-83
2023/04/21 19:09:26;;;;;;;4.35;2.40;;;14.60;99.90;;;;;;4964876;28;20390;-85
2023/04/21 19:11:52;;;;;;;3.13;2.45;;;14.50;99.90;;;;;;4970997;28;20047;-84
2023/04/21 19:14:18;;;;;;;4.45;2.28;;;14.30;99.90;;;;;;4963650;28;20395;-84
2023/04/21 19:16:44;;;;;;;4.75;2.03;;;14.20;99.90;;;;;;4953876;28;20051;-86
2023/04/21 19:19:10;;;;;;;3.90;1.80;;;14.10;99.90;;;;;;4970466;28;20047;-86
2023/04/21 19:21:35;;;;;;;3.17;2.40;;;14.00;99.90;;;;;;4964102;28;20414;-84
2023/04/21 19:24:01;;;;;;;3.60;2.72;;;13.80;99.90;;;;;;4953189;28;20054;-83
2023/04/21 19:26:27;;;;;;;3.65;2.38;;;13.80;99.90;;;;;;4969259;28;20406;-82
2023/04/21 19:28:53;;;;;;;4.18;3.03;;;13.50;99.90;;;;;;4970481;28;20129;-84
2023/04/21 19:31:20;;;;;;;3.85;2.70;;;13.60;99.90;;;;;;4970960;28;20129;-87
2023/04/21 19:33:46;;;;;;;3.47;2.10;;;13.50;99.90;;;;;;4971242;28;20035;-83
2023/04/21 19:36:12;;;;;;;6.28;2.63;;;13.40;99.90;;;;;;4971028;28;20116;-83
2023/04/21 19:38:38;;;;;;;3.53;2.50;;;13.40;99.90;;;;;;4971183;28;20038;-83
2023/04/21 19:41:04;;;;;;;3.03;2.40;;;13.30;99.90;;;;;;4971073;28;20077;-84
2023/04/21 19:43:29;;;;;;;4.97;2.60;;;13.30;99.90;;;;;;4970887;28;20046;-82
2023/04/21 19:45:57;;;;;;;3.42;2.40;;;13.20;99.90;;;;;;4969951;28;20121;-83
2023/04/21 19:48:23;;;;;;;3.50;2.80;;;13.10;99.90;;;;;;4970072;28;20458;-83
2023/04/21 19:50:48;;;;;;;3.38;2.67;;;13.10;99.90;;;;;;4953481;28;20070;-86